createdAt,value
2023-05-19T00:01:16.987Z,2.40
2023-05-19T00:03:52.542Z,2.60
2023-05-19T00:06:26.896Z,2.55
2023-05-19T00:09:01.307Z,2.47
2023-05-19T00:13:59.017Z,2.47
2023-05-19T00:16:26.319Z,2.97
2023-05-19T00:18:54.215Z,2.05
2023-05-19T00:21:21.036Z,2.30
2023-05-19T00:23:47.710Z,2.42
2023-05-19T00:26:14.347Z,3.15
2023-05-19T00:28:40.997Z,2.50
2023-05-19T00:31:07.675Z,2.40
2023-05-19T00:33:34.452Z,2.40
2023-05-19T00:36:05.710Z,2.40
2023-05-19T00:38:33.075Z,2.30
2023-05-19T00:41:00.509Z,2.30
2023-05-19T00:43:27.261Z,2.20
2023-05-19T00:45:53.954Z,2.33
2023-05-19T00:48:21.103Z,2.22
2023-05-19T00:50:48.223Z,3.17
2023-05-19T00:53:14.990Z,2.10
2023-05-19T00:55:41.657Z,2.33
2023-05-19T00:58:09.688Z,2.53
2023-05-19T01:00:37.097Z,2.20
2023-05-19T01:03:11.137Z,2.97
2023-05-19T01:08:11.545Z,2.67
2023-05-19T01:10:38.191Z,1.98
2023-05-19T01:13:05.103Z,2.90
2023-05-19T01:15:40.762Z,2.45
2023-05-19T01:18:16.566Z,2.42
2023-05-19T01:20:46.450Z,2.30
2023-05-19T01:23:36.920Z,2.35
2023-05-19T01:26:22.204Z,2.70
2023-05-19T01:29:09.267Z,2.40
2023-05-19T01:31:37.544Z,2.50
2023-05-19T01:34:06.913Z,2.15
2023-05-19T01:36:33.781Z,2.42
2023-05-19T01:39:01.167Z,2.72
2023-05-19T01:41:28.512Z,2.90
2023-05-19T01:43:55.441Z,2.45
2023-05-19T01:46:22.204Z,2.53
2023-05-19T01:48:48.910Z,2.90
2023-05-19T01:51:15.574Z,2.58
2023-05-19T01:53:42.346Z,2.55
2023-05-19T01:56:09.005Z,2.80
2023-05-19T01:58:46.366Z,2.45
2023-05-19T02:01:41.352Z,2.17
2023-05-19T02:04:35.762Z,2.42
2023-05-19T02:07:25.266Z,2.55
2023-05-19T02:10:13.863Z,2.05
2023-05-19T02:12:40.733Z,2.25
2023-05-19T02:15:17.499Z,2.00
2023-05-19T02:17:48.188Z,2.67
2023-05-19T02:20:18.263Z,2.55
2023-05-19T02:22:44.975Z,2.40
2023-05-19T02:25:11.646Z,2.70
2023-05-19T02:27:38.659Z,2.75
2023-05-19T02:30:06.055Z,2.10
2023-05-19T02:32:33.004Z,2.70
2023-05-19T02:34:59.963Z,2.20
2023-05-19T02:37:28.532Z,3.03
2023-05-19T02:39:55.425Z,2.28
2023-05-19T02:42:22.115Z,2.70
2023-05-19T02:44:48.795Z,2.50
2023-05-19T02:47:15.509Z,2.38
2023-05-19T02:49:43.000Z,2.60
2023-05-19T02:52:09.777Z,2.63
2023-05-19T02:54:36.455Z,2.90
2023-05-19T02:57:03.210Z,2.53
2023-05-19T02:59:29.874Z,2.60
2023-05-19T03:01:59.525Z,2.30
2023-05-19T03:04:26.295Z,2.28
2023-05-19T03:06:54.096Z,2.78
2023-05-19T03:09:20.808Z,2.28
2023-05-19T03:11:47.467Z,2.05
2023-05-19T03:14:14.117Z,2.63
2023-05-19T03:16:42.163Z,2.50
2023-05-19T03:19:09.298Z,2.63
2023-05-19T03:21:36.038Z,2.95
2023-05-19T03:24:02.834Z,2.22
2023-05-19T03:26:29.537Z,3.13
2023-05-19T03:28:56.185Z,2.50
2023-05-19T03:31:22.918Z,3.25
2023-05-19T03:33:49.578Z,2.60
2023-05-19T03:36:16.266Z,2.33
2023-05-19T03:38:42.930Z,2.58
2023-05-19T03:41:09.608Z,2.20
2023-05-19T03:43:36.227Z,2.38
2023-05-19T03:46:02.922Z,2.78
2023-05-19T03:48:29.686Z,2.78
2023-05-19T03:50:56.608Z,2.60
2023-05-19T03:53:23.330Z,2.85
2023-05-19T03:55:50.761Z,2.83
2023-05-19T03:58:17.429Z,3.53
2023-05-19T04:00:44.072Z,2.97
2023-05-19T04:03:10.793Z,4.05
2023-05-19T04:05:37.660Z,2.67
2023-05-19T04:08:04.426Z,2.17
2023-05-19T04:10:31.534Z,2.42
2023-05-19T04:12:58.403Z,2.40
2023-05-19T04:15:25.049Z,2.33
2023-05-19T04:17:51.759Z,2.83
2023-05-19T04:20:18.500Z,2.58
2023-05-19T04:22:45.160Z,3.15
2023-05-19T04:25:11.897Z,3.65
2023-05-19T04:27:39.417Z,2.67
2023-05-19T04:30:08.423Z,2.63
2023-05-19T04:32:37.372Z,2.95
2023-05-19T04:35:04.683Z,3.03
2023-05-19T04:37:31.550Z,3.33
2023-05-19T04:39:58.234Z,3.28
2023-05-19T04:42:26.418Z,3.00
2023-05-19T04:44:53.354Z,3.13
2023-05-19T04:47:21.535Z,2.72
2023-05-19T04:49:48.371Z,2.42
2023-05-19T04:52:15.940Z,2.78
2023-05-19T04:54:42.604Z,2.63
2023-05-19T04:57:12.972Z,2.72
2023-05-19T04:59:39.640Z,2.67
2023-05-19T05:02:06.546Z,2.80
2023-05-19T05:04:33.576Z,2.88
2023-05-19T05:07:00.216Z,2.60
2023-05-19T05:09:26.881Z,2.47
2023-05-19T05:11:54.056Z,1.77
2023-05-19T05:14:21.147Z,2.50
2023-05-19T05:16:48.120Z,2.67
2023-05-19T05:19:15.283Z,2.30
2023-05-19T05:21:43.431Z,2.10
2023-05-19T05:24:11.016Z,2.03
2023-05-19T05:26:37.991Z,2.67
2023-05-19T05:29:04.903Z,2.35
2023-05-19T05:31:31.728Z,2.22
2023-05-19T05:33:58.628Z,2.38
2023-05-19T05:36:25.506Z,2.13
2023-05-19T05:38:52.182Z,1.98
2023-05-19T05:41:18.836Z,1.83
2023-05-19T05:43:45.597Z,1.90
2023-05-19T05:46:12.442Z,2.67
2023-05-19T05:48:39.451Z,2.38
2023-05-19T05:51:06.654Z,2.30
2023-05-19T05:53:33.744Z,2.08
2023-05-19T05:56:00.773Z,1.90
2023-05-19T05:58:28.791Z,2.22
2023-05-19T06:00:57.660Z,2.08
2023-05-19T06:03:24.624Z,1.75
2023-05-19T06:05:51.598Z,2.47
2023-05-19T06:08:18.431Z,2.03
2023-05-19T06:10:47.218Z,2.05
2023-05-19T06:13:16.260Z,2.22
2023-05-19T06:15:43.016Z,2.35
2023-05-19T06:18:09.762Z,2.40
2023-05-19T06:20:36.502Z,2.38
2023-05-19T06:23:03.182Z,2.63
2023-05-19T06:25:30.507Z,2.47
2023-05-19T06:27:57.765Z,2.10
2023-05-19T06:30:24.445Z,2.70
2023-05-19T06:32:51.296Z,2.15
2023-05-19T06:35:18.308Z,2.30
2023-05-19T06:37:44.965Z,2.13
2023-05-19T06:40:12.379Z,1.92
2023-05-19T06:42:39.150Z,2.47
2023-05-19T06:45:06.361Z,2.08
2023-05-19T06:47:33.330Z,2.60
2023-05-19T06:50:00.069Z,2.72
2023-05-19T06:52:26.785Z,2.30
2023-05-19T06:54:53.450Z,2.63
2023-05-19T06:57:20.108Z,2.08
2023-05-19T06:59:47.092Z,2.47
2023-05-19T07:02:14.044Z,2.85
2023-05-19T07:04:41.089Z,2.20
2023-05-19T07:07:07.780Z,2.03
2023-05-19T07:09:34.610Z,2.35
2023-05-19T07:12:01.477Z,2.13
2023-05-19T07:14:28.502Z,2.13
2023-05-19T07:16:55.307Z,2.20
2023-05-19T07:19:22.555Z,1.75
2023-05-19T07:21:49.436Z,1.88
2023-05-19T07:24:17.485Z,2.10
2023-05-19T07:26:44.205Z,2.33
2023-05-19T07:29:11.028Z,1.98
2023-05-19T07:31:37.813Z,1.92
2023-05-19T07:34:04.548Z,2.58
2023-05-19T07:36:31.398Z,1.95
2023-05-19T07:38:58.272Z,2.38
2023-05-19T07:41:25.189Z,1.90
2023-05-19T07:43:51.925Z,2.08
2023-05-19T07:46:18.957Z,1.90
2023-05-19T07:48:45.680Z,1.88
2023-05-19T07:51:12.781Z,2.28
2023-05-19T07:53:39.456Z,2.20
2023-05-19T07:56:06.497Z,2.67
2023-05-19T07:58:33.187Z,4.00
2023-05-19T08:00:59.862Z,2.03
2023-05-19T08:03:27.588Z,2.05
2023-05-19T08:05:54.525Z,2.00
2023-05-19T08:08:21.942Z,2.28
2023-05-19T08:10:48.727Z,3.15
2023-05-19T08:13:15.426Z,1.88
2023-05-19T08:15:42.712Z,1.88
2023-05-19T08:18:09.611Z,1.75
2023-05-19T08:20:36.732Z,1.73
2023-05-19T08:23:03.475Z,1.67
2023-05-19T08:25:30.821Z,2.22
2023-05-19T08:27:57.496Z,2.35
2023-05-19T08:30:24.334Z,2.10
2023-05-19T08:32:51.138Z,2.17
2023-05-19T08:35:17.871Z,2.22
2023-05-19T08:37:44.530Z,2.20
2023-05-19T08:40:16.218Z,2.55
2023-05-19T08:42:43.074Z,2.45
2023-05-19T08:45:10.061Z,2.88
2023-05-19T08:47:36.776Z,2.17
2023-05-19T08:50:07.732Z,1.85
2023-05-19T08:52:47.889Z,2.63
2023-05-19T08:55:25.908Z,2.20
2023-05-19T08:57:52.922Z,2.20
2023-05-19T09:00:20.725Z,2.10
2023-05-19T09:03:00.221Z,2.40
2023-05-19T09:05:33.186Z,2.60
2023-05-19T09:08:02.856Z,2.08
2023-05-19T09:10:29.755Z,2.30
2023-05-19T09:12:56.444Z,1.88
2023-05-19T09:15:23.361Z,2.35
2023-05-19T09:17:50.070Z,1.92
2023-05-19T09:20:17.276Z,2.30
2023-05-19T09:22:47.573Z,1.80
2023-05-19T09:25:24.131Z,2.08
2023-05-19T09:27:51.108Z,2.10
2023-05-19T09:30:17.897Z,2.33
2023-05-19T09:32:45.078Z,2.13
2023-05-19T09:35:13.111Z,2.08
2023-05-19T09:37:43.105Z,1.80
2023-05-19T09:40:12.981Z,2.10
2023-05-19T09:42:40.573Z,1.92
2023-05-19T09:45:08.746Z,2.67
2023-05-19T09:47:39.603Z,2.20
2023-05-19T09:50:08.516Z,2.40
2023-05-19T09:52:36.737Z,1.92
2023-05-19T09:55:05.206Z,2.15
2023-05-19T09:57:38.268Z,1.83
2023-05-19T10:00:15.515Z,2.38
2023-05-19T10:02:46.129Z,2.28
2023-05-19T10:05:22.819Z,2.28
2023-05-19T10:07:51.380Z,2.33
2023-05-19T10:10:20.006Z,1.98
2023-05-19T10:12:46.889Z,2.03
2023-05-19T10:15:14.738Z,1.83
2023-05-19T10:17:43.157Z,1.80
2023-05-19T10:20:12.578Z,1.65
2023-05-19T10:22:39.813Z,2.10
2023-05-19T10:25:07.106Z,1.98
2023-05-19T10:27:44.152Z,1.95
2023-05-19T10:30:28.462Z,2.45
2023-05-19T10:32:57.271Z,2.03
2023-05-19T10:35:40.434Z,1.98
2023-05-19T10:38:24.963Z,1.90
2023-05-19T10:44:06.842Z,1.92
2023-05-19T10:46:33.588Z,1.65
2023-05-19T10:49:00.267Z,1.73
2023-05-19T10:51:33.711Z,1.88
2023-05-19T10:54:04.173Z,1.87
2023-05-19T10:56:36.244Z,1.65
2023-05-19T10:59:03.305Z,1.88
2023-05-19T11:01:34.301Z,2.20
2023-05-19T11:04:06.321Z,1.60
2023-05-19T11:06:34.280Z,1.60
2023-05-19T11:09:10.513Z,1.90
2023-05-19T11:11:50.763Z,1.95
2023-05-19T11:14:21.694Z,1.83
2023-05-19T11:16:49.213Z,2.05
2023-05-19T11:19:20.008Z,1.50
2023-05-19T11:21:52.366Z,1.70
2023-05-19T11:24:37.924Z,2.00
2023-05-19T11:27:28.304Z,2.20
2023-05-19T11:29:56.293Z,2.38
2023-05-19T11:32:26.260Z,2.05
2023-05-19T11:34:53.758Z,2.05
2023-05-19T11:37:20.848Z,2.08
2023-05-19T11:39:47.578Z,1.80
2023-05-19T11:42:14.346Z,1.52
2023-05-19T11:44:46.181Z,1.80
2023-05-19T11:47:16.816Z,1.80
2023-05-19T11:49:51.907Z,1.80
2023-05-19T11:52:23.626Z,1.13
2023-05-19T11:54:50.645Z,1.50
2023-05-19T11:57:17.373Z,1.60
2023-05-19T11:59:45.798Z,1.65
2023-05-19T12:02:16.300Z,1.38
2023-05-19T12:04:43.230Z,1.67
2023-05-19T12:07:12.270Z,1.52
2023-05-19T12:09:39.162Z,1.70
2023-05-19T12:12:06.153Z,1.40
2023-05-19T12:14:32.811Z,1.40
2023-05-19T12:16:59.476Z,1.42
2023-05-19T12:19:26.390Z,1.40
2023-05-19T12:21:53.603Z,1.90
2023-05-19T12:24:20.660Z,2.00
2023-05-19T12:26:47.365Z,1.52
2023-05-19T12:29:14.067Z,2.22
2023-05-19T12:31:40.774Z,1.70
2023-05-19T12:34:07.482Z,1.50
2023-05-19T12:36:34.185Z,2.83
2023-05-19T12:39:00.955Z,1.70
2023-05-19T12:41:27.665Z,1.58
2023-05-19T12:43:57.336Z,1.38
2023-05-19T12:46:24.103Z,1.50
2023-05-19T12:48:51.627Z,1.63
2023-05-19T12:51:19.289Z,1.40
2023-05-19T12:53:47.318Z,1.90
2023-05-19T12:56:17.129Z,1.48
2023-05-19T12:58:43.999Z,1.33
2023-05-19T13:01:18.117Z,1.50
2023-05-19T13:03:45.926Z,1.63
2023-05-19T13:06:12.777Z,1.50
2023-05-19T13:08:42.248Z,1.50
2023-05-19T13:11:08.922Z,1.33
2023-05-19T13:13:35.694Z,1.67
2023-05-19T13:16:02.491Z,2.22
2023-05-19T13:18:32.071Z,1.45
2023-05-19T13:20:58.768Z,1.70
2023-05-19T13:23:26.280Z,1.60
2023-05-19T13:25:53.001Z,1.70
2023-05-19T13:28:19.733Z,1.50
2023-05-19T13:30:46.482Z,1.90
2023-05-19T13:33:13.270Z,1.40
2023-05-19T13:35:40.051Z,1.50
2023-05-19T13:38:07.866Z,1.40
2023-05-19T13:40:34.973Z,1.70
2023-05-19T13:43:02.633Z,1.63
2023-05-19T13:45:29.369Z,1.73
2023-05-19T13:47:56.459Z,1.88
2023-05-19T13:50:23.307Z,1.30
2023-05-19T13:52:50.007Z,1.42
2023-05-19T13:55:16.785Z,1.50
2023-05-19T13:57:44.217Z,1.85
2023-05-19T14:00:11.465Z,1.67
2023-05-19T14:02:38.262Z,1.85
2023-05-19T14:05:05.797Z,1.65
2023-05-19T14:07:35.119Z,2.38
2023-05-19T14:10:02.821Z,1.33
2023-05-19T14:12:37.878Z,1.52
2023-05-19T14:15:11.424Z,1.50
2023-05-19T14:17:38.335Z,1.70
2023-05-19T14:20:05.647Z,1.60
2023-05-19T14:22:32.311Z,1.67
2023-05-19T14:25:00.438Z,1.63
2023-05-19T14:27:27.122Z,1.52
2023-05-19T14:29:53.965Z,1.30
2023-05-19T14:32:20.968Z,1.40
2023-05-19T14:34:47.643Z,1.40
2023-05-19T14:37:14.299Z,1.55
2023-05-19T14:39:40.968Z,2.15
2023-05-19T14:42:07.843Z,1.60
2023-05-19T14:44:34.489Z,1.83
2023-05-19T14:47:02.185Z,1.50
2023-05-19T14:49:29.039Z,1.50
2023-05-19T14:51:56.019Z,1.60
2023-05-19T14:54:22.733Z,1.60
2023-05-19T14:56:49.426Z,1.45
2023-05-19T14:59:16.087Z,1.55
2023-05-19T15:01:42.867Z,1.92
2023-05-19T15:04:09.834Z,1.88
2023-05-19T15:06:36.571Z,2.13
2023-05-19T15:09:03.250Z,1.42
2023-05-19T15:11:30.187Z,1.50
2023-05-19T15:13:57.140Z,2.00
2023-05-19T15:16:23.819Z,1.58
2023-05-19T15:18:51.741Z,1.63
2023-05-19T15:21:18.539Z,1.60
2023-05-19T15:23:45.238Z,1.30
2023-05-19T15:26:11.962Z,2.40
2023-05-19T15:28:38.607Z,1.70
2023-05-19T15:31:05.370Z,1.70
2023-05-19T15:33:32.064Z,1.73
2023-05-19T15:35:58.756Z,1.88
2023-05-19T15:38:26.554Z,2.08
2023-05-19T15:40:54.475Z,1.58
2023-05-19T15:43:21.843Z,1.95
2023-05-19T15:45:48.497Z,1.73
2023-05-19T15:48:15.283Z,2.05
2023-05-19T15:50:42.033Z,1.48
2023-05-19T15:53:09.085Z,2.10
2023-05-19T15:55:35.819Z,1.65
2023-05-19T15:58:02.813Z,1.90
2023-05-19T16:00:29.484Z,1.60
2023-05-19T16:02:56.184Z,1.80
2023-05-19T16:05:22.972Z,1.77
2023-05-19T16:07:49.634Z,2.00
2023-05-19T16:10:16.348Z,1.60
2023-05-19T16:12:43.006Z,1.80
2023-05-19T16:15:09.975Z,1.88
2023-05-19T16:17:36.708Z,1.85
2023-05-19T16:20:03.931Z,1.73
2023-05-19T16:22:30.598Z,1.75
2023-05-19T16:24:57.254Z,1.67
2023-05-19T16:27:23.919Z,1.48
2023-05-19T16:29:50.580Z,1.48
2023-05-19T16:32:17.241Z,1.70
2023-05-19T16:34:43.878Z,2.13
2023-05-19T16:37:10.652Z,1.95
2023-05-19T16:39:37.387Z,1.98
2023-05-19T16:42:04.709Z,1.65
2023-05-19T16:44:31.374Z,1.50
2023-05-19T16:46:58.046Z,2.10
2023-05-19T16:49:24.697Z,1.85
2023-05-19T16:51:52.892Z,1.75
2023-05-19T16:54:19.724Z,3.33
2023-05-19T16:56:46.416Z,2.53
2023-05-19T16:59:13.768Z,1.83
2023-05-19T17:01:40.752Z,1.63
2023-05-19T17:04:07.509Z,1.67
2023-05-19T17:06:34.216Z,2.20
2023-05-19T17:09:00.923Z,1.73
2023-05-19T17:11:27.817Z,1.20
2023-05-19T17:13:54.495Z,1.55
2023-05-19T17:16:21.349Z,1.67
2023-05-19T17:18:48.144Z,1.40
2023-05-19T17:21:14.942Z,1.52
2023-05-19T17:23:41.877Z,1.33
2023-05-19T17:26:08.868Z,1.50
2023-05-19T17:28:35.694Z,1.30
2023-05-19T17:31:08.689Z,1.65
2023-05-19T17:33:35.575Z,2.00
2023-05-19T17:36:03.625Z,1.42
2023-05-19T17:38:32.165Z,1.42
2023-05-19T17:40:59.446Z,1.40
2023-05-19T17:43:26.441Z,1.60
2023-05-19T17:45:53.401Z,1.20
2023-05-19T17:48:20.288Z,1.73
2023-05-19T17:50:48.082Z,1.88
2023-05-19T17:53:16.018Z,1.55
2023-05-19T17:55:45.270Z,1.42
2023-05-19T17:58:15.552Z,1.80
2023-05-19T18:00:42.452Z,1.92
2023-05-19T18:03:09.370Z,1.70
2023-05-19T18:05:37.385Z,1.33
2023-05-19T18:08:07.028Z,1.40
2023-05-19T18:10:36.272Z,1.40
2023-05-19T18:13:04.081Z,1.67
2023-05-19T18:15:31.080Z,1.75
2023-05-19T18:17:57.799Z,1.60
2023-05-19T18:20:24.924Z,1.52
2023-05-19T18:22:51.596Z,1.60
2023-05-19T18:25:21.237Z,1.55
2023-05-19T18:27:48.092Z,1.65
2023-05-19T18:30:14.794Z,1.60
2023-05-19T18:32:41.540Z,2.00
2023-05-19T18:35:08.898Z,1.75
2023-05-19T18:37:35.719Z,1.48
2023-05-19T18:40:02.405Z,1.40
2023-05-19T18:42:29.155Z,1.35
2023-05-19T18:44:55.884Z,1.45
2023-05-19T18:47:23.092Z,1.75
2023-05-19T18:49:50.117Z,1.40
2023-05-19T18:52:16.781Z,1.52
2023-05-19T18:54:45.861Z,1.70
2023-05-19T18:57:12.769Z,1.58
2023-05-19T18:59:39.443Z,1.75
2023-05-19T19:02:06.422Z,1.60
2023-05-19T19:04:33.483Z,1.38
2023-05-19T19:07:00.171Z,1.65
2023-05-19T19:09:26.815Z,1.48
2023-05-19T19:11:53.470Z,1.45
2023-05-19T19:14:20.141Z,1.65
2023-05-19T19:16:46.826Z,1.50
2023-05-19T19:19:13.650Z,1.90
2023-05-19T19:21:40.511Z,1.42
2023-05-19T19:24:07.444Z,1.27
2023-05-19T19:26:34.093Z,2.00
2023-05-19T19:29:00.892Z,1.80
2023-05-19T19:31:28.778Z,1.65
2023-05-19T19:34:02.900Z,1.48
2023-05-19T19:36:29.748Z,1.90
2023-05-19T19:38:56.417Z,2.08
2023-05-19T19:41:23.209Z,1.77
2023-05-19T19:43:51.025Z,1.90
2023-05-19T19:46:17.769Z,2.10
2023-05-19T19:48:44.481Z,1.98
2023-05-19T19:51:11.217Z,2.00
2023-05-19T19:53:37.880Z,1.88
2023-05-19T19:56:05.209Z,1.90
2023-05-19T19:58:31.884Z,1.63
2023-05-19T20:00:59.328Z,1.52
2023-05-19T20:03:26.324Z,1.83
2023-05-19T20:05:54.409Z,2.65
2023-05-19T20:08:21.427Z,2.20
2023-05-19T20:10:48.193Z,2.47
2023-05-19T20:13:15.590Z,1.75
2023-05-19T20:15:43.114Z,1.60
2023-05-19T20:18:10.104Z,1.55
2023-05-19T20:20:37.851Z,2.15
2023-05-19T20:23:04.529Z,1.85
2023-05-19T20:25:31.252Z,1.85
2023-05-19T20:27:57.948Z,1.92
2023-05-19T20:30:24.668Z,1.88
2023-05-19T20:32:51.601Z,1.92
2023-05-19T20:35:18.356Z,2.22
2023-05-19T20:37:44.993Z,2.17
2023-05-19T20:40:11.863Z,2.05
2023-05-19T20:42:39.301Z,2.20
2023-05-19T20:45:06.985Z,2.00
2023-05-19T20:47:33.667Z,1.80
2023-05-19T20:50:00.380Z,1.88
2023-05-19T20:52:27.164Z,1.80
2023-05-19T20:54:53.900Z,1.80
2023-05-19T20:57:20.539Z,1.70
2023-05-19T20:59:47.225Z,1.65
2023-05-19T21:02:13.928Z,1.88
2023-05-19T21:04:40.620Z,2.15
2023-05-19T21:07:07.385Z,2.72
2023-05-19T21:09:34.065Z,2.40
2023-05-19T21:12:01.044Z,2.65
2023-05-19T21:14:27.703Z,2.10
2023-05-19T21:16:55.693Z,2.33
2023-05-19T21:19:23.100Z,2.85
2023-05-19T21:21:49.801Z,2.10
2023-05-19T21:24:16.526Z,2.20
2023-05-19T21:26:43.190Z,2.22
2023-05-19T21:29:09.836Z,2.00
2023-05-19T21:31:36.556Z,2.03
2023-05-19T21:34:04.047Z,2.08
2023-05-19T21:36:31.594Z,1.92
2023-05-19T21:38:58.231Z,2.00
2023-05-19T21:41:24.880Z,1.98
2023-05-19T21:43:51.517Z,2.05
2023-05-19T21:46:18.228Z,1.90
2023-05-19T21:48:45.029Z,2.08
2023-05-19T21:51:11.741Z,2.35
2023-05-19T21:53:38.406Z,2.30
2023-05-19T21:56:05.238Z,2.95
2023-05-19T21:58:31.894Z,2.00
2023-05-19T22:00:59.358Z,2.10
2023-05-19T22:03:26.100Z,2.22
2023-05-19T22:05:55.038Z,2.00
2023-05-19T22:08:22.449Z,2.03
2023-05-19T22:10:49.869Z,2.20
2023-05-19T22:13:16.567Z,2.25
2023-05-19T22:15:43.235Z,2.53
2023-05-19T22:18:09.924Z,2.15
2023-05-19T22:20:37.625Z,2.25
2023-05-19T22:23:04.481Z,2.33
2023-05-19T22:25:31.174Z,2.55
2023-05-19T22:27:57.872Z,2.28
2023-05-19T22:30:24.594Z,2.13
2023-05-19T22:32:51.282Z,2.58
2023-05-19T22:35:18.828Z,2.30
2023-05-19T22:37:45.490Z,2.47
2023-05-19T22:40:12.319Z,2.63
2023-05-19T22:42:38.984Z,2.70
2023-05-19T22:45:06.323Z,2.00
2023-05-19T22:47:34.038Z,2.85
2023-05-19T22:50:00.899Z,2.53
2023-05-19T22:52:27.555Z,2.70
2023-05-19T22:54:54.216Z,2.47
2023-05-19T22:57:20.905Z,2.38
2023-05-19T22:59:47.617Z,2.90
2023-05-19T23:02:14.245Z,2.67
2023-05-19T23:04:40.933Z,2.63
2023-05-19T23:07:07.575Z,2.83
2023-05-19T23:09:34.252Z,3.00
2023-05-19T23:12:00.920Z,2.65
2023-05-19T23:14:27.634Z,2.65
2023-05-19T23:16:54.289Z,2.20
2023-05-19T23:19:21.046Z,2.75
2023-05-19T23:21:48.954Z,2.95
2023-05-19T23:24:16.024Z,2.83
2023-05-19T23:26:43.944Z,2.58
2023-05-19T23:29:14.702Z,2.45
2023-05-19T23:31:41.648Z,2.45
2023-05-19T23:34:08.376Z,2.30
2023-05-19T23:36:35.035Z,2.70
2023-05-19T23:39:01.707Z,2.38
2023-05-19T23:41:28.424Z,3.10
2023-05-19T23:43:55.057Z,2.60
2023-05-19T23:46:21.783Z,2.88
2023-05-19T23:48:48.555Z,3.10
2023-05-19T23:51:15.450Z,2.90
2023-05-19T23:53:42.095Z,2.40
2023-05-19T23:56:08.757Z,3.10
2023-05-19T23:58:35.405Z,2.55
